<?xml version="1.0" encoding="UTF-8" standalone="no" ?>
<gpx xmlns="http://www.topografix.com/GPX/1/1" xmlns:xsi="http://www.w3.org/2001/XMLSchema-instance" xsi:schemaLocation="http://www.topografix.com/GPX/1/1 http://www.topografix.com/GPX/1/1/gpx.xsd" version="1.1" creator="VisuGPX - https://www.visugpx.com">
  <metadata>
    <name>boucles beaumont</name>
    <desc><![CDATA[boucles beaumont du périgord]]></desc>
  </metadata>
  <trk>
    <name><![CDATA[BBmt03]]></name>
    <trkseg>
      <trkpt lat="44.79408" lon="0.74735">
        <ele>80</ele>
        <time>2008-12-08T12:14:03Z</time>
      </trkpt>
      <trkpt lat="44.7943" lon="0.74708">
        <ele>85</ele>
        <time>2008-12-08T12:14:08Z</time>
      </trkpt>
      <trkpt lat="44.79448" lon="0.74698">
        <ele>81</ele>
        <time>2008-12-08T12:14:14Z</time>
      </trkpt>
      <trkpt lat="44.79468" lon="0.747">
        <ele>87</ele>
        <time>2008-12-08T12:14:27Z</time>
      </trkpt>
      <trkpt lat="44.79414" lon="0.74653">
        <ele>93</ele>
        <time>2009-06-18T16:43:36Z</time>
      </trkpt>
      <trkpt lat="44.79345" lon="0.7458">
        <ele>103</ele>
        <time>2009-06-18T16:43:36Z</time>
      </trkpt>
      <trkpt lat="44.79336" lon="0.74568">
        <ele>104</ele>
        <time>2008-12-08T13:28:17Z</time>
      </trkpt>
      <trkpt lat="44.79328" lon="0.74563">
        <ele>113</ele>
        <time>2008-12-08T13:28:42Z</time>
      </trkpt>
      <trkpt lat="44.79335" lon="0.74538">
        <ele>106</ele>
        <time>2008-12-08T13:29:06Z</time>
      </trkpt>
      <trkpt lat="44.79343" lon="0.74513">
        <ele>105</ele>
        <time>2008-12-08T13:29:14Z</time>
      </trkpt>
      <trkpt lat="44.79353" lon="0.7449">
        <ele>108</ele>
        <time>2008-12-08T13:29:22Z</time>
      </trkpt>
      <trkpt lat="44.79363" lon="0.74468">
        <ele>110</ele>
        <time>2008-12-08T13:29:31Z</time>
      </trkpt>
      <trkpt lat="44.79375" lon="0.74443">
        <ele>108</ele>
        <time>2008-12-08T13:29:38Z</time>
      </trkpt>
      <trkpt lat="44.79388" lon="0.74418">
        <ele>110</ele>
        <time>2008-12-08T13:29:44Z</time>
      </trkpt>
      <trkpt lat="44.794" lon="0.74398">
        <ele>110</ele>
        <time>2008-12-08T13:29:53Z</time>
      </trkpt>
      <trkpt lat="44.79413" lon="0.74378">
        <ele>114</ele>
        <time>2008-12-08T13:30:06Z</time>
      </trkpt>
      <trkpt lat="44.79428" lon="0.74363">
        <ele>122</ele>
        <time>2008-12-08T13:30:13Z</time>
      </trkpt>
      <trkpt lat="44.79443" lon="0.74345">
        <ele>118</ele>
        <time>2008-12-08T13:30:22Z</time>
      </trkpt>
      <trkpt lat="44.79458" lon="0.74325">
        <ele>123</ele>
        <time>2008-12-08T13:30:32Z</time>
      </trkpt>
      <trkpt lat="44.79473" lon="0.74303">
        <ele>128</ele>
        <time>2008-12-08T13:30:40Z</time>
      </trkpt>
      <trkpt lat="44.79483" lon="0.7428">
        <ele>126</ele>
        <time>2008-12-08T13:30:46Z</time>
      </trkpt>
      <trkpt lat="44.79488" lon="0.74255">
        <ele>119</ele>
        <time>2008-12-08T13:30:52Z</time>
      </trkpt>
      <trkpt lat="44.79488" lon="0.74225">
        <ele>99</ele>
        <time>2008-12-08T13:30:58Z</time>
      </trkpt>
      <trkpt lat="44.79488" lon="0.74198">
        <ele>88</ele>
        <time>2008-12-08T13:31:07Z</time>
      </trkpt>
      <trkpt lat="44.79485" lon="0.7417">
        <ele>87</ele>
        <time>2008-12-08T13:31:14Z</time>
      </trkpt>
      <trkpt lat="44.79488" lon="0.74138">
        <ele>82</ele>
        <time>2008-12-08T13:31:19Z</time>
      </trkpt>
      <trkpt lat="44.79493" lon="0.74108">
        <ele>80</ele>
        <time>2008-12-08T13:31:25Z</time>
      </trkpt>
      <trkpt lat="44.79498" lon="0.74083">
        <ele>84</ele>
        <time>2008-12-08T13:31:30Z</time>
      </trkpt>
      <trkpt lat="44.79503" lon="0.74058">
        <ele>82</ele>
        <time>2008-12-08T13:31:35Z</time>
      </trkpt>
      <trkpt lat="44.79508" lon="0.7403">
        <ele>75</ele>
        <time>2008-12-08T13:31:42Z</time>
      </trkpt>
      <trkpt lat="44.7951" lon="0.74">
        <ele>67</ele>
        <time>2008-12-08T13:31:49Z</time>
      </trkpt>
      <trkpt lat="44.79515" lon="0.73975">
        <ele>62</ele>
        <time>2008-12-08T13:31:55Z</time>
      </trkpt>
      <trkpt lat="44.79518" lon="0.73948">
        <ele>59</ele>
        <time>2008-12-08T13:32:01Z</time>
      </trkpt>
      <trkpt lat="44.79528" lon="0.73923">
        <ele>58</ele>
        <time>2008-12-08T13:32:07Z</time>
      </trkpt>
      <trkpt lat="44.79535" lon="0.73895">
        <ele>59</ele>
        <time>2008-12-08T13:32:53Z</time>
      </trkpt>
      <trkpt lat="44.7954" lon="0.73868">
        <ele>61</ele>
        <time>2008-12-08T13:32:58Z</time>
      </trkpt>
      <trkpt lat="44.79553" lon="0.73843">
        <ele>61</ele>
        <time>2008-12-08T13:33:03Z</time>
      </trkpt>
      <trkpt lat="44.79563" lon="0.7382">
        <ele>64</ele>
        <time>2008-12-08T13:33:07Z</time>
      </trkpt>
      <trkpt lat="44.79578" lon="0.73805">
        <ele>71</ele>
        <time>2008-12-08T13:33:11Z</time>
      </trkpt>
      <trkpt lat="44.79598" lon="0.7379">
        <ele>78</ele>
        <time>2008-12-08T13:33:17Z</time>
      </trkpt>
      <trkpt lat="44.79615" lon="0.73775">
        <ele>83</ele>
        <time>2008-12-08T13:33:22Z</time>
      </trkpt>
      <trkpt lat="44.79635" lon="0.73763">
        <ele>92</ele>
        <time>2008-12-08T13:33:27Z</time>
      </trkpt>
      <trkpt lat="44.7965" lon="0.73748">
        <ele>95</ele>
        <time>2008-12-08T13:33:31Z</time>
      </trkpt>
      <trkpt lat="44.79665" lon="0.73733">
        <ele>97</ele>
        <time>2008-12-08T13:33:37Z</time>
      </trkpt>
      <trkpt lat="44.79683" lon="0.73718">
        <ele>97</ele>
        <time>2008-12-08T13:33:43Z</time>
      </trkpt>
      <trkpt lat="44.797" lon="0.737">
        <ele>100</ele>
        <time>2008-12-08T13:33:48Z</time>
      </trkpt>
      <trkpt lat="44.79715" lon="0.7368">
        <ele>104</ele>
        <time>2008-12-08T13:33:53Z</time>
      </trkpt>
      <trkpt lat="44.79735" lon="0.73663">
        <ele>104</ele>
        <time>2008-12-08T13:33:58Z</time>
      </trkpt>
      <trkpt lat="44.79753" lon="0.73645">
        <ele>105</ele>
        <time>2008-12-08T13:34:02Z</time>
      </trkpt>
      <trkpt lat="44.79768" lon="0.73625">
        <ele>109</ele>
        <time>2008-12-08T13:34:07Z</time>
      </trkpt>
      <trkpt lat="44.79783" lon="0.73608">
        <ele>117</ele>
        <time>2008-12-08T13:34:11Z</time>
      </trkpt>
      <trkpt lat="44.79795" lon="0.73588">
        <ele>119</ele>
        <time>2008-12-08T13:34:15Z</time>
      </trkpt>
      <trkpt lat="44.7981" lon="0.73563">
        <ele>107</ele>
        <time>2008-12-08T13:34:20Z</time>
      </trkpt>
      <trkpt lat="44.7982" lon="0.7354">
        <ele>89</ele>
        <time>2008-12-08T13:34:24Z</time>
      </trkpt>
      <trkpt lat="44.79835" lon="0.73523">
        <ele>83</ele>
        <time>2008-12-08T13:34:29Z</time>
      </trkpt>
    </trkseg>
  </trk>
</gpx>